sensor_id;sensor_type;location;lat;lon;timestamp;pressure;altitude;pressure_sealevel;temperature;humidity
42671;BME280;28283;55.426;37.756;2023-03-09T00:04:53;97422.97;;;-1.93;80.17
42671;BME280;28283;55.426;37.756;2023-03-09T00:09:54;97411.84;;;-2.12;79.49
42671;BME280;28283;55.426;37.756;2023-03-09T00:14:54;97420.22;;;-2.08;80.63
42671;BME280;28283;55.426;37.756;2023-03-09T00:19:55;97424.00;;;-2.11;80.30
42671;BME280;28283;55.426;37.756;2023-03-09T00:25:15;97419.47;;;-2.33;80.65
42671;BME280;28283;55.426;37.756;2023-03-09T00:30:17;97424.19;;;-2.20;81.35
42671;BME280;28283;55.426;37.756;2023-03-09T00:35:18;97426.84;;;-2.28;80.89
42671;BME280;28283;55.426;37.756;2023-03-09T00:40:19;97422.06;;;-2.17;80.33
42671;BME280;28283;55.426;37.756;2023-03-09T00:45:20;97429.50;;;-2.37;79.88
42671;BME280;28283;55.426;37.756;2023-03-09T00:50:23;97431.47;;;-2.47;80.65
42671;BME280;28283;55.426;37.756;2023-03-09T00:55:23;97439.19;;;-2.45;81.40
42671;BME280;28283;55.426;37.756;2023-03-09T01:00:24;97440.03;;;-2.61;81.33
42671;BME280;28283;55.426;37.756;2023-03-09T01:05:27;97435.25;;;-2.74;81.65
42671;BME280;28283;55.426;37.756;2023-03-09T01:10:27;97451.53;;;-2.54;81.71
42671;BME280;28283;55.426;37.756;2023-03-09T01:15:28;97430.50;;;-2.87;81.72
42671;BME280;28283;55.426;37.756;2023-03-09T01:20:28;97440.34;;;-2.73;81.38
42671;BME280;28283;55.426;37.756;2023-03-09T01:25:29;97438.03;;;-2.59;81.21
42671;BME280;28283;55.426;37.756;2023-03-09T01:30:29;97422.59;;;-2.79;81.30
42671;BME280;28283;55.426;37.756;2023-03-09T01:35:31;97421.75;;;-3.04;81.04
42671;BME280;28283;55.426;37.756;2023-03-09T01:40:32;97453.66;;;-2.82;81.05
42671;BME280;28283;55.426;37.756;2023-03-09T01:50:34;97454.16;;;-2.87;81.32
42671;BME280;28283;55.426;37.756;2023-03-09T01:55:44;97450.16;;;-3.08;81.01
42671;BME280;28283;55.426;37.756;2023-03-09T02:00:47;97464.59;;;-3.12;82.13
42671;BME280;28283;55.426;37.756;2023-03-09T02:05:58;97464.09;;;-3.07;81.65
42671;BME280;28283;55.426;37.756;2023-03-09T02:11:07;97467.06;;;-3.18;81.53
42671;BME280;28283;55.426;37.756;2023-03-09T02:16:08;97477.72;;;-3.20;82.05
42671;BME280;28283;55.426;37.756;2023-03-09T02:26:38;97477.06;;;-3.22;81.53
42671;BME280;28283;55.426;37.756;2023-03-09T02:31:40;97490.69;;;-3.27;81.33
42671;BME280;28283;55.426;37.756;2023-03-09T02:36:40;97496.31;;;-3.13;81.22
42671;BME280;28283;55.426;37.756;2023-03-09T02:41:41;97495.66;;;-3.15;80.59
42671;BME280;28283;55.426;37.756;2023-03-09T02:46:41;97496.47;;;-3.15;81.34
42671;BME280;28283;55.426;37.756;2023-03-09T02:51:42;97501.63;;;-3.39;80.37
42671;BME280;28283;55.426;37.756;2023-03-09T02:56:42;97506.47;;;-3.27;81.30
42671;BME280;28283;55.426;37.756;2023-03-09T03:01:43;97476.25;;;-3.65;81.48
42671;BME280;28283;55.426;37.756;2023-03-09T03:06:44;97508.06;;;-3.34;81.75
42671;BME280;28283;55.426;37.756;2023-03-09T03:11:45;97502.88;;;-3.52;80.65
42671;BME280;28283;55.426;37.756;2023-03-09T03:16:45;97505.56;;;-3.43;80.84
42671;BME280;28283;55.426;37.756;2023-03-09T03:21:46;97494.94;;;-3.68;81.24
42671;BME280;28283;55.426;37.756;2023-03-09T03:26:48;97516.00;;;-3.60;81.43
42671;BME280;28283;55.426;37.756;2023-03-09T03:31:49;97517.94;;;-3.62;81.62
42671;BME280;28283;55.426;37.756;2023-03-09T03:36:50;97458.13;;;-4.11;80.93
42671;BME280;28283;55.426;37.756;2023-03-09T03:41:51;97522.34;;;-3.62;81.68
42671;BME280;28283;55.426;37.756;2023-03-09T03:46:51;97527.50;;;-3.87;81.71
42671;BME280;28283;55.426;37.756;2023-03-09T03:51:51;97530.47;;;-3.82;81.27
42671;BME280;28283;55.426;37.756;2023-03-09T03:56:52;97514.97;;;-3.93;81.47
42671;BME280;28283;55.426;37.756;2023-03-09T04:01:53;97532.88;;;-3.89;81.75
42671;BME280;28283;55.426;37.756;2023-03-09T04:06:53;97526.75;;;-3.97;82.09
42671;BME280;28283;55.426;37.756;2023-03-09T04:11:54;97535.00;;;-3.92;81.48
42671;BME280;28283;55.426;37.756;2023-03-09T04:16:54;97536.06;;;-4.03;81.72
42671;BME280;28283;55.426;37.756;2023-03-09T04:21:55;97549.00;;;-3.84;81.57
42671;BME280;28283;55.426;37.756;2023-03-09T04:26:56;97526.53;;;-4.04;81.56
42671;BME280;28283;55.426;37.756;2023-03-09T04:31:56;97555.06;;;-3.83;82.31
42671;BME280;28283;55.426;37.756;2023-03-09T04:36:56;97556.91;;;-3.75;81.19
42671;BME280;28283;55.426;37.756;2023-03-09T04:41:57;97546.00;;;-3.89;81.39
42671;BME280;28283;55.426;37.756;2023-03-09T04:46:57;97570.47;;;-3.62;80.79
42671;BME280;28283;55.426;37.756;2023-03-09T04:51:58;97567.63;;;-3.69;81.53
42671;BME280;28283;55.426;37.756;2023-03-09T04:56:59;97551.72;;;-3.67;81.04
42671;BME280;28283;55.426;37.756;2023-03-09T05:01:59;97579.31;;;-3.37;80.90
42671;BME280;28283;55.426;37.756;2023-03-09T05:07:00;97587.28;;;-3.47;80.18
42671;BME280;28283;55.426;37.756;2023-03-09T05:12:00;97588.25;;;-3.21;79.95
42671;BME280;28283;55.426;37.756;2023-03-09T05:17:01;97581.28;;;-3.39;79.32
42671;BME280;28283;55.426;37.756;2023-03-09T05:22:02;97602.88;;;-3.19;79.44
42671;BME280;28283;55.426;37.756;2023-03-09T05:27:03;97609.75;;;-3.26;78.66
42671;BME280;28283;55.426;37.756;2023-03-09T05:32:03;97603.31;;;-2.97;77.99
42671;BME280;28283;55.426;37.756;2023-03-09T05:37:04;97614.94;;;-3.08;78.67
42671;BME280;28283;55.426;37.756;2023-03-09T05:42:04;97606.00;;;-2.81;78.68
42671;BME280;28283;55.426;37.756;2023-03-09T05:47:06;97610.28;;;-2.72;77.27
42671;BME280;28283;55.426;37.756;2023-03-09T05:52:06;97611.50;;;-2.50;77.60
42671;BME280;28283;55.426;37.756;2023-03-09T05:57:09;97605.28;;;-2.40;76.56
42671;BME280;28283;55.426;37.756;2023-03-09T06:02:10;97605.44;;;-2.42;75.91
42671;BME280;28283;55.426;37.756;2023-03-09T06:07:10;97606.97;;;-1.98;74.93
42671;BME280;28283;55.426;37.756;2023-03-09T06:12:11;97624.56;;;-1.90;74.12
42671;BME280;28283;55.426;37.756;2023-03-09T06:17:12;97625.22;;;-1.88;73.93
42671;BME280;28283;55.426;37.756;2023-03-09T06:22:12;97625.41;;;-1.74;74.22
42671;BME280;28283;55.426;37.756;2023-03-09T06:27:13;97641.69;;;-1.45;73.28
42671;BME280;28283;55.426;37.756;2023-03-09T06:32:14;97634.41;;;-1.35;72.38
42671;BME280;28283;55.426;37.756;2023-03-09T06:37:14;97647.19;;;-0.99;70.41
42671;BME280;28283;55.426;37.756;2023-03-09T06:42:17;97651.00;;;-1.02;70.27
42671;BME280;28283;55.426;37.756;2023-03-09T06:47:17;97647.31;;;-0.84;68.82
42671;BME280;28283;55.426;37.756;2023-03-09T06:52:18;97637.16;;;-1.04;67.23
42671;BME280;28283;55.426;37.756;2023-03-09T06:57:19;97672.50;;;-0.73;66.85
42671;BME280;28283;55.426;37.756;2023-03-09T07:02:19;97685.72;;;-0.82;66.16
42671;BME280;28283;55.426;37.756;2023-03-09T07:07:20;97683.66;;;-0.63;65.34
42671;BME280;28283;55.426;37.756;2023-03-09T07:12:20;97683.78;;;-0.88;65.72
42671;BME280;28283;55.426;37.756;2023-03-09T07:17:21;97642.09;;;-0.61;63.37
42671;BME280;28283;55.426;37.756;2023-03-09T07:22:22;97617.59;;;-0.70;62.18
42671;BME280;28283;55.426;37.756;2023-03-09T07:27:22;97690.13;;;-0.26;60.99
42671;BME280;28283;55.426;37.756;2023-03-09T07:32:23;97667.25;;;-0.42;60.96
42671;BME280;28283;55.426;37.756;2023-03-09T07:37:26;97674.91;;;-0.24;58.92
42671;BME280;28283;55.426;37.756;2023-03-09T07:42:27;97690.00;;;-0.02;58.32
42671;BME280;28283;55.426;37.756;2023-03-09T07:47:28;97626.88;;;-0.51;59.87
42671;BME280;28283;55.426;37.756;2023-03-09T07:52:28;97681.19;;;0.06;57.26
42671;BME280;28283;55.426;37.756;2023-03-09T07:57:33;97673.72;;;0.56;55.48
42671;BME280;28283;55.426;37.756;2023-03-09T08:02:34;97644.72;;;0.02;55.46
42671;BME280;28283;55.426;37.756;2023-03-09T08:07:35;97653.25;;;0.12;55.21
42671;BME280;28283;55.426;37.756;2023-03-09T08:12:35;97700.03;;;0.03;56.09
42671;BME280;28283;55.426;37.756;2023-03-09T08:17:36;97696.41;;;0.04;53.83
42671;BME280;28283;55.426;37.756;2023-03-09T08:22:39;97678.25;;;0.24;52.82
42671;BME280;28283;55.426;37.756;2023-03-09T08:27:43;97695.41;;;0.28;52.88
42671;BME280;28283;55.426;37.756;2023-03-09T08:32:45;97642.97;;;0.17;50.80
42671;BME280;28283;55.426;37.756;2023-03-09T08:37:48;97704.78;;;0.08;53.42
42671;BME280;28283;55.426;37.756;2023-03-09T08:42:49;97693.28;;;0.01;53.88
42671;BME280;28283;55.426;37.756;2023-03-09T08:47:49;97695.97;;;0.15;53.64
42671;BME280;28283;55.426;37.756;2023-03-09T08:52:50;97712.19;;;0.12;53.31
42671;BME280;28283;55.426;37.756;2023-03-09T08:57:51;97721.22;;;0.41;52.88
42671;BME280;28283;55.426;37.756;2023-03-09T09:02:52;97706.16;;;0.04;55.57
42671;BME280;28283;55.426;37.756;2023-03-09T09:07:53;97716.19;;;-0.23;56.23
42671;BME280;28283;55.426;37.756;2023-03-09T09:12:54;97726.69;;;-0.15;57.73
42671;BME280;28283;55.426;37.756;2023-03-09T09:17:54;97720.50;;;-0.30;59.44
42671;BME280;28283;55.426;37.756;2023-03-09T09:22:55;97710.84;;;-0.46;60.98
42671;BME280;28283;55.426;37.756;2023-03-09T09:27:56;97718.94;;;-0.56;63.43
42671;BME280;28283;55.426;37.756;2023-03-09T09:32:57;97706.44;;;-0.70;65.16
42671;BME280;28283;55.426;37.756;2023-03-09T09:37:57;97715.59;;;-0.89;66.48
42671;BME280;28283;55.426;37.756;2023-03-09T09:42:59;97680.84;;;-1.09;67.97
42671;BME280;28283;55.426;37.756;2023-03-09T09:48:03;97703.38;;;-0.82;68.45
42671;BME280;28283;55.426;37.756;2023-03-09T09:53:30;97688.56;;;-1.08;70.96
42671;BME280;28283;55.426;37.756;2023-03-09T09:58:45;97629.38;;;-1.61;72.53
42671;BME280;28283;55.426;37.756;2023-03-09T10:03:49;97670.47;;;-1.19;72.23
42671;BME280;28283;55.426;37.756;2023-03-09T10:09:02;97685.81;;;-1.14;73.28
42671;BME280;28283;55.426;37.756;2023-03-09T10:14:29;97681.84;;;-1.19;74.19
42671;BME280;28283;55.426;37.756;2023-03-09T10:19:39;97656.94;;;-1.08;74.25
42671;BME280;28283;55.426;37.756;2023-03-09T10:24:48;97663.38;;;-1.10;74.69
42671;BME280;28283;55.426;37.756;2023-03-09T10:35:44;97656.47;;;-1.20;76.43
42671;BME280;28283;55.426;37.756;2023-03-09T10:45:32;97650.19;;;-1.02;76.22
42671;BME280;28283;55.426;37.756;2023-03-09T10:50:36;97640.00;;;-1.22;77.41
42671;BME280;28283;55.426;37.756;2023-03-09T10:55:41;97644.56;;;-0.99;77.37
42671;BME280;28283;55.426;37.756;2023-03-09T11:00:50;97631.44;;;-1.24;78.19
42671;BME280;28283;55.426;37.756;2023-03-09T11:05:52;97617.75;;;-1.11;77.69
42671;BME280;28283;55.426;37.756;2023-03-09T11:11:04;97614.56;;;-0.98;77.27
42671;BME280;28283;55.426;37.756;2023-03-09T11:16:13;97578.09;;;-1.34;77.79
42671;BME280;28283;55.426;37.756;2023-03-09T11:21:23;97597.88;;;-1.38;79.09
42671;BME280;28283;55.426;37.756;2023-03-09T11:31:39;97613.69;;;-1.55;80.41
42671;BME280;28283;55.426;37.756;2023-03-09T11:41:59;97592.59;;;-1.55;81.21
42671;BME280;28283;55.426;37.756;2023-03-09T11:47:05;97588.97;;;-1.37;80.10
42671;BME280;28283;55.426;37.756;2023-03-09T11:52:07;97597.19;;;-1.32;80.15
42671;BME280;28283;55.426;37.756;2023-03-09T11:57:13;97594.59;;;-1.48;80.17
42671;BME280;28283;55.426;37.756;2023-03-09T12:02:29;97604.50;;;-1.67;81.50
42671;BME280;28283;55.426;37.756;2023-03-09T12:07:41;97568.59;;;-1.60;80.92
42671;BME280;28283;55.426;37.756;2023-03-09T12:12:52;97567.13;;;-1.70;81.78
42671;BME280;28283;55.426;37.756;2023-03-09T12:18:02;97577.84;;;-1.80;81.89
42671;BME280;28283;55.426;37.756;2023-03-09T12:23:05;97552.84;;;-2.09;82.93
42671;BME280;28283;55.426;37.756;2023-03-09T12:28:25;97582.28;;;-1.81;83.38
42671;BME280;28283;55.426;37.756;2023-03-09T12:38:42;97576.38;;;-1.83;83.95
42671;BME280;28283;55.426;37.756;2023-03-09T12:43:46;97563.34;;;-1.76;83.16
42671;BME280;28283;55.426;37.756;2023-03-09T12:48:48;97572.06;;;-1.84;83.78
42671;BME280;28283;55.426;37.756;2023-03-09T12:54:05;97577.66;;;-1.87;84.32
42671;BME280;28283;55.426;37.756;2023-03-09T12:59:23;97571.59;;;-1.79;84.04
42671;BME280;28283;55.426;37.756;2023-03-09T13:04:27;97563.34;;;-1.76;83.10
42671;BME280;28283;55.426;37.756;2023-03-09T13:09:35;97555.81;;;-2.20;84.08
42671;BME280;28283;55.426;37.756;2023-03-09T13:19:52;97574.88;;;-1.94;83.63
42671;BME280;28283;55.426;37.756;2023-03-09T13:25:18;97561.06;;;-2.12;84.32
42671;BME280;28283;55.426;37.756;2023-03-09T13:30:22;97551.50;;;-2.21;85.37
42671;BME280;28283;55.426;37.756;2023-03-09T13:35:29;97559.75;;;-2.16;84.84
42671;BME280;28283;55.426;37.756;2023-03-09T13:40:35;97558.91;;;-2.25;85.76
42671;BME280;28283;55.426;37.756;2023-03-09T13:45:36;97563.69;;;-2.37;86.02
42671;BME280;28283;55.426;37.756;2023-03-09T13:50:41;97556.63;;;-2.20;85.97
42671;BME280;28283;55.426;37.756;2023-03-09T13:56:01;97564.03;;;-2.23;86.33
42671;BME280;28283;55.426;37.756;2023-03-09T14:01:05;97523.03;;;-2.42;86.97
42671;BME280;28283;55.426;37.756;2023-03-09T14:06:09;97558.75;;;-2.07;86.67
42671;BME280;28283;55.426;37.756;2023-03-09T14:11:16;97524.03;;;-2.27;85.86
42671;BME280;28283;55.426;37.756;2023-03-09T14:16:18;97530.13;;;-2.35;86.03
42671;BME280;28283;55.426;37.756;2023-03-09T14:21:19;97550.53;;;-2.12;85.61
42671;BME280;28283;55.426;37.756;2023-03-09T14:26:25;97540.66;;;-2.18;85.78
42671;BME280;28283;55.426;37.756;2023-03-09T14:31:27;97519.78;;;-2.36;85.54
42671;BME280;28283;55.426;37.756;2023-03-09T14:36:38;97534.56;;;-2.27;86.13
42671;BME280;28283;55.426;37.756;2023-03-09T14:41:39;97535.91;;;-2.31;86.05
42671;BME280;28283;55.426;37.756;2023-03-09T14:46:40;97538.19;;;-2.12;84.52
42671;BME280;28283;55.426;37.756;2023-03-09T14:51:40;97542.63;;;-2.04;84.47
42671;BME280;28283;55.426;37.756;2023-03-09T14:56:41;97550.69;;;-2.14;83.21
42671;BME280;28283;55.426;37.756;2023-03-09T15:01:46;97540.00;;;-2.12;83.93
42671;BME280;28283;55.426;37.756;2023-03-09T15:06:48;97518.28;;;-2.31;83.29
42671;BME280;28283;55.426;37.756;2023-03-09T15:11:53;97555.94;;;-2.30;83.41
42671;BME280;28283;55.426;37.756;2023-03-09T15:16:57;97547.88;;;-2.28;83.31
42671;BME280;28283;55.426;37.756;2023-03-09T15:21:57;97548.25;;;-2.15;83.28
42671;BME280;28283;55.426;37.756;2023-03-09T15:27:01;97527.16;;;-2.56;82.87
42671;BME280;28283;55.426;37.756;2023-03-09T15:32:01;97551.00;;;-2.50;83.68
42671;BME280;28283;55.426;37.756;2023-03-09T15:37:10;97552.31;;;-2.62;85.04
42671;BME280;28283;55.426;37.756;2023-03-09T15:42:10;97556.44;;;-2.51;84.89
42671;BME280;28283;55.426;37.756;2023-03-09T15:47:11;97554.47;;;-2.33;85.20
42671;BME280;28283;55.426;37.756;2023-03-09T15:52:11;97555.44;;;-2.34;84.92
42671;BME280;28283;55.426;37.756;2023-03-09T15:57:12;97567.31;;;-2.21;85.49
42671;BME280;28283;55.426;37.756;2023-03-09T16:02:12;97563.19;;;-2.16;85.22
42671;BME280;28283;55.426;37.756;2023-03-09T16:07:13;97564.53;;;-2.12;84.70
42671;BME280;28283;55.426;37.756;2023-03-09T16:12:13;97585.72;;;-1.88;83.29
42671;BME280;28283;55.426;37.756;2023-03-09T16:17:14;97593.97;;;-2.08;82.93
42671;BME280;28283;55.426;37.756;2023-03-09T16:22:14;97601.38;;;-2.03;82.63
42671;BME280;28283;55.426;37.756;2023-03-09T16:27:15;97586.53;;;-2.45;83.35
42671;BME280;28283;55.426;37.756;2023-03-09T16:32:15;97614.00;;;-2.40;83.74
42671;BME280;28283;55.426;37.756;2023-03-09T16:37:16;97627.84;;;-2.29;84.64
42671;BME280;28283;55.426;37.756;2023-03-09T16:42:17;97617.22;;;-2.62;84.18
42671;BME280;28283;55.426;37.756;2023-03-09T16:47:17;97630.56;;;-2.56;84.62
42671;BME280;28283;55.426;37.756;2023-03-09T16:52:18;97639.22;;;-2.80;85.57
42671;BME280;28283;55.426;37.756;2023-03-09T16:57:18;97633.81;;;-2.70;85.82
42671;BME280;28283;55.426;37.756;2023-03-09T17:02:19;97627.97;;;-2.90;86.32
42671;BME280;28283;55.426;37.756;2023-03-09T17:07:23;97647.69;;;-2.94;86.12
42671;BME280;28283;55.426;37.756;2023-03-09T17:12:24;97645.66;;;-3.09;86.98
42671;BME280;28283;55.426;37.756;2023-03-09T17:17:26;97654.34;;;-3.08;86.79
42671;BME280;28283;55.426;37.756;2023-03-09T17:22:27;97656.56;;;-2.95;86.30
42671;BME280;28283;55.426;37.756;2023-03-09T17:27:27;97648.00;;;-3.23;86.09
42671;BME280;28283;55.426;37.756;2023-03-09T17:32:27;97652.53;;;-3.08;86.00
42671;BME280;28283;55.426;37.756;2023-03-09T17:37:29;97617.63;;;-3.52;86.08
42671;BME280;28283;55.426;37.756;2023-03-09T17:42:30;97642.38;;;-3.37;86.72
42671;BME280;28283;55.426;37.756;2023-03-09T17:47:31;97650.78;;;-3.25;86.45
42671;BME280;28283;55.426;37.756;2023-03-09T17:52:37;97650.25;;;-3.37;85.75
42671;BME280;28283;55.426;37.756;2023-03-09T17:57:40;97667.31;;;-3.41;85.75
42671;BME280;28283;55.426;37.756;2023-03-09T18:02:41;97668.34;;;-3.34;86.53
42671;BME280;28283;55.426;37.756;2023-03-09T18:07:41;97632.75;;;-3.72;86.42
42671;BME280;28283;55.426;37.756;2023-03-09T18:12:42;97670.38;;;-3.46;87.22
42671;BME280;28283;55.426;37.756;2023-03-09T18:17:42;97674.75;;;-3.54;86.59
42671;BME280;28283;55.426;37.756;2023-03-09T18:22:43;97668.44;;;-3.61;87.35
42671;BME280;28283;55.426;37.756;2023-03-09T18:27:43;97679.84;;;-3.53;87.54
42671;BME280;28283;55.426;37.756;2023-03-09T18:32:44;97618.34;;;-4.12;87.63
42671;BME280;28283;55.426;37.756;2023-03-09T18:37:46;97690.53;;;-3.72;87.92
42671;BME280;28283;55.426;37.756;2023-03-09T18:42:47;97650.03;;;-4.06;88.44
42671;BME280;28283;55.426;37.756;2023-03-09T18:48:01;97690.53;;;-3.72;87.83
42671;BME280;28283;55.426;37.756;2023-03-09T18:53:02;97705.38;;;-3.63;88.10
42671;BME280;28283;55.426;37.756;2023-03-09T18:58:03;97692.09;;;-3.79;86.96
42671;BME280;28283;55.426;37.756;2023-03-09T19:03:03;97704.63;;;-3.73;87.33
42671;BME280;28283;55.426;37.756;2023-03-09T19:08:04;97719.25;;;-3.71;87.04
42671;BME280;28283;55.426;37.756;2023-03-09T19:13:05;97695.88;;;-3.82;87.15
42671;BME280;28283;55.426;37.756;2023-03-09T19:18:06;97705.47;;;-3.73;86.61
42671;BME280;28283;55.426;37.756;2023-03-09T19:23:06;97725.28;;;-3.60;86.59
42671;BME280;28283;55.426;37.756;2023-03-09T19:28:08;97730.00;;;-3.82;86.66
42671;BME280;28283;55.426;37.756;2023-03-09T19:33:11;97722.31;;;-4.11;87.19
42671;BME280;28283;55.426;37.756;2023-03-09T19:38:12;97729.75;;;-4.07;87.83
42671;BME280;28283;55.426;37.756;2023-03-09T19:43:12;97742.13;;;-3.81;88.00
42671;BME280;28283;55.426;37.756;2023-03-09T19:48:13;97737.00;;;-4.00;87.82
42671;BME280;28283;55.426;37.756;2023-03-09T19:53:14;97766.94;;;-3.93;87.21
42671;BME280;28283;55.426;37.756;2023-03-09T19:58:14;97764.47;;;-3.95;87.42
42671;BME280;28283;55.426;37.756;2023-03-09T20:03:14;97760.44;;;-3.89;86.65
42671;BME280;28283;55.426;37.756;2023-03-09T20:08:15;97770.59;;;-4.04;86.37
42671;BME280;28283;55.426;37.756;2023-03-09T20:13:16;97737.06;;;-4.28;86.27
42671;BME280;28283;55.426;37.756;2023-03-09T20:18:16;97768.28;;;-4.07;86.99
42671;BME280;28283;55.426;37.756;2023-03-09T20:23:17;97749.13;;;-4.45;87.04
42671;BME280;28283;55.426;37.756;2023-03-09T20:28:17;97774.03;;;-4.22;86.98
42671;BME280;28283;55.426;37.756;2023-03-09T20:33:18;97777.22;;;-4.28;87.34
42671;BME280;28283;55.426;37.756;2023-03-09T20:38:19;97772.84;;;-4.09;87.41
42671;BME280;28283;55.426;37.756;2023-03-09T20:43:19;97757.97;;;-4.18;86.95
42671;BME280;28283;55.426;37.756;2023-03-09T20:48:20;97770.19;;;-3.99;86.26
42671;BME280;28283;55.426;37.756;2023-03-09T20:53:21;97776.53;;;-4.02;85.66
42671;BME280;28283;55.426;37.756;2023-03-09T20:58:22;97765.59;;;-3.97;84.77
42671;BME280;28283;55.426;37.756;2023-03-09T21:03:23;97773.31;;;-3.96;84.61
42671;BME280;28283;55.426;37.756;2023-03-09T21:08:24;97770.13;;;-4.17;84.18
42671;BME280;28283;55.426;37.756;2023-03-09T21:13:24;97767.03;;;-4.03;84.67
42671;BME280;28283;55.426;37.756;2023-03-09T21:18:25;97773.09;;;-4.30;84.53
42671;BME280;28283;55.426;37.756;2023-03-09T21:23:26;97771.16;;;-4.28;85.16
42671;BME280;28283;55.426;37.756;2023-03-09T21:28:27;97757.13;;;-4.37;85.42
42671;BME280;28283;55.426;37.756;2023-03-09T21:33:27;97758.19;;;-4.30;84.90
42671;BME280;28283;55.426;37.756;2023-03-09T21:38:28;97733.84;;;-4.50;84.65
42671;BME280;28283;55.426;37.756;2023-03-09T21:43:30;97739.34;;;-4.43;84.61
42671;BME280;28283;55.426;37.756;2023-03-09T21:48:31;97741.88;;;-4.51;85.14
42671;BME280;28283;55.426;37.756;2023-03-09T21:53:31;97739.22;;;-4.24;84.03
42671;BME280;28283;55.426;37.756;2023-03-09T21:58:32;97755.47;;;-4.38;84.19
42671;BME280;28283;55.426;37.756;2023-03-09T22:03:33;97751.81;;;-4.55;84.18
42671;BME280;28283;55.426;37.756;2023-03-09T22:08:34;97735.56;;;-4.58;84.09
42671;BME280;28283;55.426;37.756;2023-03-09T22:13:34;97761.78;;;-4.31;83.59
42671;BME280;28283;55.426;37.756;2023-03-09T22:18:35;97763.72;;;-4.61;83.45
42671;BME280;28283;55.426;37.756;2023-03-09T22:23:35;97762.63;;;-4.68;84.34
42671;BME280;28283;55.426;37.756;2023-03-09T22:28:36;97764.03;;;-4.73;84.76
42671;BME280;28283;55.426;37.756;2023-03-09T22:33:37;97770.09;;;-4.73;85.09
42671;BME280;28283;55.426;37.756;2023-03-09T22:38:39;97757.28;;;-4.76;84.50
42671;BME280;28283;55.426;37.756;2023-03-09T22:43:40;97747.94;;;-4.88;85.13
42671;BME280;28283;55.426;37.756;2023-03-09T22:48:41;97719.03;;;-5.06;85.90
42671;BME280;28283;55.426;37.756;2023-03-09T22:53:42;97737.22;;;-5.05;86.18
42671;BME280;28283;55.426;37.756;2023-03-09T22:58:44;97739.78;;;-4.85;86.02
42671;BME280;28283;55.426;37.756;2023-03-09T23:03:47;97679.38;;;-5.21;85.89
42671;BME280;28283;55.426;37.756;2023-03-09T23:08:48;97746.13;;;-4.78;85.61
42671;BME280;28283;55.426;37.756;2023-03-09T23:13:49;97735.63;;;-4.78;85.22
42671;BME280;28283;55.426;37.756;2023-03-09T23:18:50;97743.63;;;-4.80;85.49
42671;BME280;28283;55.426;37.756;2023-03-09T23:23:51;97738.09;;;-4.76;84.57
42671;BME280;28283;55.426;37.756;2023-03-09T23:28:51;97715.72;;;-4.99;84.48
42671;BME280;28283;55.426;37.756;2023-03-09T23:33:52;97741.38;;;-4.65;84.73
42671;BME280;28283;55.426;37.756;2023-03-09T23:38:53;97720.09;;;-4.89;84.61
42671;BME280;28283;55.426;37.756;2023-03-09T23:43:54;97720.28;;;-5.01;85.30
42671;BME280;28283;55.426;37.756;2023-03-09T23:48:54;97718.88;;;-4.95;85.20
42671;BME280;28283;55.426;37.756;2023-03-09T23:53:55;97672.22;;;-5.39;85.62
42671;BME280;28283;55.426;37.756;2023-03-09T23:58:56;97707.03;;;-5.09;86.41
